createdAt,value
2022-11-24T00:01:26.192Z,29.10
2022-11-24T00:04:05.177Z,29.80
2022-11-24T00:06:34.886Z,29.40
2022-11-24T00:09:04.258Z,28.80
2022-11-24T00:11:33.989Z,27.30
2022-11-24T00:14:02.637Z,28.30
2022-11-24T00:16:35.444Z,30.30
2022-11-24T00:19:06.142Z,30.50
2022-11-24T00:21:33.797Z,28.20
2022-11-24T00:24:02.252Z,29.80
2022-11-24T00:26:32.354Z,27.20
2022-11-24T00:29:02.303Z,28.00
2022-11-24T00:31:31.951Z,28.40
2022-11-24T00:34:01.766Z,29.00
2022-11-24T00:36:31.302Z,28.20
2022-11-24T00:39:01.374Z,27.80
2022-11-24T00:41:29.633Z,28.10
2022-11-24T00:43:58.312Z,28.80
2022-11-24T00:46:27.127Z,27.60
2022-11-24T00:48:55.564Z,28.80
2022-11-24T00:51:27.107Z,27.90
2022-11-24T00:53:56.350Z,29.80
2022-11-24T00:56:25.015Z,28.40
2022-11-24T00:58:52.827Z,27.00
2022-11-24T01:01:26.234Z,29.30
2022-11-24T01:03:57.325Z,26.20
2022-11-24T01:06:26.265Z,28.90
2022-11-24T01:08:54.865Z,26.80
2022-11-24T01:11:25.617Z,27.00
2022-11-24T01:13:57.713Z,32.70
2022-11-24T01:16:31.612Z,32.60
2022-11-24T01:18:59.481Z,34.50
2022-11-24T01:21:27.281Z,34.40
2022-11-24T01:23:54.979Z,37.00
2022-11-24T01:26:23.065Z,36.80
2022-11-24T01:28:58.258Z,37.60
2022-11-24T01:31:26.974Z,34.60
2022-11-24T01:33:55.189Z,37.60
2022-11-24T01:36:22.973Z,33.30
2022-11-24T01:38:50.900Z,32.80
2022-11-24T01:41:21.404Z,31.80
2022-11-24T01:43:50.247Z,32.90
2022-11-24T01:46:36.917Z,29.50
2022-11-24T01:49:08.073Z,26.30
2022-11-24T01:51:45.361Z,28.80
2022-11-24T01:54:16.804Z,30.10
2022-11-24T01:56:47.158Z,29.50
2022-11-24T01:59:17.936Z,29.00
2022-11-24T02:01:47.835Z,27.20
2022-11-24T02:04:18.445Z,28.70
2022-11-24T02:06:46.513Z,28.00
2022-11-24T02:09:44.704Z,26.90
2022-11-24T02:12:12.545Z,26.60
2022-11-24T02:14:42.240Z,29.40
2022-11-24T02:17:10.382Z,27.70
2022-11-24T02:19:40.823Z,27.10
2022-11-24T02:22:15.479Z,26.20
2022-11-24T02:25:11.920Z,27.80
2022-11-24T02:27:39.642Z,25.90
2022-11-24T02:30:40.649Z,27.60
2022-11-24T02:33:10.349Z,28.40
2022-11-24T02:35:38.037Z,27.60
2022-11-24T02:38:05.759Z,26.10
2022-11-24T02:40:33.507Z,27.10
2022-11-24T02:43:07.970Z,25.80
2022-11-24T02:45:35.774Z,26.80
2022-11-24T02:48:03.556Z,28.30
2022-11-24T02:50:31.251Z,25.30
2022-11-24T02:52:58.901Z,27.20
2022-11-24T02:55:26.813Z,27.80
2022-11-24T02:57:54.518Z,27.30
2022-11-24T03:00:22.728Z,26.70
2022-11-24T03:02:50.591Z,26.50
2022-11-24T03:05:18.666Z,26.80
2022-11-24T03:07:46.502Z,26.00
2022-11-24T03:10:14.286Z,27.20
2022-11-24T03:12:42.163Z,26.30
2022-11-24T03:15:10.625Z,25.30
2022-11-24T03:17:38.265Z,25.20
2022-11-24T03:20:06.685Z,27.10
2022-11-24T03:22:34.406Z,26.00
2022-11-24T03:25:02.179Z,26.90
2022-11-24T03:27:31.030Z,24.60
2022-11-24T03:29:59.059Z,26.10
2022-11-24T03:32:26.713Z,25.10
2022-11-24T03:34:54.500Z,25.80
2022-11-24T03:37:22.678Z,25.20
2022-11-24T03:39:50.560Z,25.80
2022-11-24T03:42:18.240Z,26.30
2022-11-24T03:44:45.921Z,26.30
2022-11-24T03:47:13.745Z,25.90
2022-11-24T03:49:41.647Z,27.10
2022-11-24T03:52:09.790Z,26.90
2022-11-24T03:54:37.466Z,27.00
2022-11-24T03:57:05.568Z,26.80
2022-11-24T03:59:33.236Z,26.60
2022-11-24T04:02:00.962Z,25.60
2022-11-24T04:04:28.772Z,27.60
2022-11-24T04:06:56.702Z,26.80
2022-11-24T04:09:24.386Z,27.90
2022-11-24T04:12:15.001Z,27.60
2022-11-24T04:14:42.634Z,29.20
2022-11-24T04:17:10.506Z,29.50
2022-11-24T04:19:38.291Z,27.60
2022-11-24T04:22:06.071Z,28.70
2022-11-24T04:24:34.093Z,26.70
2022-11-24T04:27:02.174Z,27.20
2022-11-24T04:29:30.227Z,26.40
2022-11-24T04:31:57.965Z,27.40
2022-11-24T04:34:25.716Z,28.70
2022-11-24T04:36:53.464Z,28.10
2022-11-24T04:39:25.154Z,26.40
2022-11-24T04:41:54.911Z,27.90
2022-11-24T04:44:22.662Z,24.70
2022-11-24T04:46:50.467Z,26.80
2022-11-24T04:49:18.560Z,25.60
2022-11-24T04:51:46.478Z,25.70
2022-11-24T04:54:14.496Z,29.10
2022-11-24T04:56:43.856Z,27.30
2022-11-24T04:59:15.395Z,24.30
2022-11-24T05:01:47.003Z,25.70
2022-11-24T05:04:15.887Z,26.90
2022-11-24T05:06:43.833Z,26.00
2022-11-24T05:09:16.082Z,26.90
2022-11-24T05:14:11.653Z,23.30
2022-11-24T05:16:39.590Z,27.10
2022-11-24T05:19:07.716Z,24.50
2022-11-24T05:21:35.499Z,26.20
2022-11-24T05:24:03.561Z,25.80
2022-11-24T05:26:31.346Z,24.40
2022-11-24T05:28:59.141Z,26.40
2022-11-24T05:31:27.128Z,26.20
2022-11-24T05:33:54.966Z,25.40
2022-11-24T05:36:41.605Z,26.80
2022-11-24T05:39:09.580Z,24.30
2022-11-24T05:41:37.400Z,25.30
2022-11-24T05:44:05.382Z,25.10
2022-11-24T05:46:33.259Z,26.50
2022-11-24T05:49:01.171Z,27.60
2022-11-24T05:51:30.600Z,25.70
2022-11-24T05:53:58.307Z,28.90
2022-11-24T05:56:26.048Z,26.40
2022-11-24T05:58:53.800Z,25.30
2022-11-24T06:01:21.693Z,26.70
2022-11-24T06:03:49.428Z,27.60
2022-11-24T06:06:17.298Z,28.70
2022-11-24T06:08:45.020Z,29.10
2022-11-24T06:11:18.834Z,27.70
2022-11-24T06:13:48.715Z,26.50
2022-11-24T06:16:16.843Z,28.30
2022-11-24T06:18:44.689Z,30.10
2022-11-24T06:21:12.541Z,32.00
2022-11-24T06:23:40.748Z,42.10
2022-11-24T06:26:09.369Z,46.60
2022-11-24T06:28:37.498Z,50.50
2022-11-24T06:31:06.009Z,48.00
2022-11-24T06:33:36.344Z,52.30
2022-11-24T06:36:06.486Z,39.80
2022-11-24T06:38:35.949Z,39.80
2022-11-24T06:41:09.808Z,41.10
2022-11-24T06:43:37.781Z,42.40
2022-11-24T06:46:05.946Z,42.90
2022-11-24T06:48:34.226Z,40.80
2022-11-24T06:51:04.474Z,42.70
2022-11-24T06:53:39.737Z,41.30
2022-11-24T06:56:15.750Z,37.60
2022-11-24T06:58:47.322Z,37.90
2022-11-24T07:01:22.609Z,40.80
2022-11-24T07:03:52.059Z,40.40
2022-11-24T07:06:21.865Z,38.60
2022-11-24T07:08:49.875Z,36.00
2022-11-24T07:11:20.985Z,34.00
2022-11-24T07:13:49.183Z,33.60
2022-11-24T07:16:22.405Z,33.20
2022-11-24T07:18:52.217Z,34.70
2022-11-24T07:21:21.524Z,33.30
2022-11-24T07:23:54.077Z,33.60
2022-11-24T07:26:22.793Z,36.10
2022-11-24T07:28:51.170Z,41.80
2022-11-24T07:31:21.660Z,40.60
2022-11-24T07:33:53.672Z,36.60
2022-11-24T07:36:22.478Z,39.60
2022-11-24T07:38:50.748Z,37.60
2022-11-24T07:41:19.747Z,38.30
2022-11-24T07:43:48.352Z,37.60
2022-11-24T07:46:17.709Z,38.20
2022-11-24T07:48:46.390Z,35.10
2022-11-24T07:51:14.781Z,34.70
2022-11-24T07:53:43.265Z,35.60
2022-11-24T07:56:11.147Z,34.00
2022-11-24T07:58:38.953Z,38.10
2022-11-24T08:01:15.655Z,33.90
2022-11-24T08:03:45.204Z,35.80
2022-11-24T08:06:24.999Z,35.20
2022-11-24T08:08:53.371Z,32.90
2022-11-24T08:11:21.257Z,32.40
2022-11-24T08:13:49.080Z,30.00
2022-11-24T08:16:18.230Z,30.50
2022-11-24T08:18:50.943Z,31.00
2022-11-24T08:21:19.477Z,32.10
2022-11-24T08:23:47.481Z,31.20
2022-11-24T08:26:18.798Z,34.20
2022-11-24T08:28:47.425Z,37.00
2022-11-24T08:31:18.777Z,30.80
2022-11-24T08:33:47.020Z,33.20
2022-11-24T08:36:18.062Z,30.10
2022-11-24T08:38:46.300Z,33.20
2022-11-24T08:41:15.990Z,30.30
2022-11-24T08:43:43.889Z,31.50
2022-11-24T08:46:14.144Z,30.80
2022-11-24T08:48:41.965Z,29.90
2022-11-24T08:51:12.302Z,32.10
2022-11-24T08:53:40.443Z,32.50
2022-11-24T08:56:09.329Z,31.00
2022-11-24T08:58:37.698Z,31.10
2022-11-24T09:01:07.626Z,31.20
2022-11-24T09:03:35.758Z,30.30
2022-11-24T09:06:04.068Z,34.40
2022-11-24T09:08:33.205Z,35.40
2022-11-24T09:11:02.606Z,34.80
2022-11-24T09:13:30.494Z,34.10
2022-11-24T09:16:06.833Z,34.20
2022-11-24T09:18:39.849Z,33.30
2022-11-24T09:21:08.213Z,33.00
2022-11-24T09:23:36.611Z,33.10
2022-11-24T09:26:06.395Z,32.60
2022-11-24T09:28:34.638Z,32.40
2022-11-24T09:31:04.661Z,31.90
2022-11-24T09:33:33.575Z,30.30
2022-11-24T09:36:01.538Z,30.90
2022-11-24T09:38:29.736Z,32.20
2022-11-24T09:41:15.157Z,27.10
2022-11-24T09:43:56.827Z,31.50
2022-11-24T09:46:33.827Z,31.00
2022-11-24T09:49:03.597Z,28.70
2022-11-24T09:51:32.402Z,31.00
2022-11-24T09:54:09.232Z,30.40
2022-11-24T09:56:38.602Z,28.90
2022-11-24T09:59:18.765Z,28.40
2022-11-24T10:01:48.092Z,29.60
2022-11-24T10:04:28.602Z,31.40
2022-11-24T10:06:56.566Z,33.20
2022-11-24T10:09:45.405Z,32.30
2022-11-24T10:12:30.855Z,31.00
2022-11-24T10:15:25.842Z,29.50
2022-11-24T10:18:16.733Z,30.60
2022-11-24T10:20:54.926Z,31.60
2022-11-24T10:23:56.698Z,33.50
2022-11-24T10:26:38.699Z,32.80
2022-11-24T10:29:14.131Z,32.40
2022-11-24T10:31:43.341Z,32.90
2022-11-24T10:34:27.846Z,31.70
2022-11-24T10:37:23.851Z,33.30
2022-11-24T10:40:04.119Z,31.70
2022-11-24T10:42:37.245Z,30.90
2022-11-24T10:45:31.700Z,34.30
2022-11-24T10:47:59.495Z,30.80
2022-11-24T10:50:31.441Z,32.80
2022-11-24T10:53:08.588Z,32.20
2022-11-24T10:55:54.713Z,32.50
2022-11-24T10:58:36.060Z,35.00
2022-11-24T11:01:15.101Z,35.60
2022-11-24T11:03:48.997Z,34.80
2022-11-24T11:06:30.559Z,37.40
2022-11-24T11:09:07.513Z,34.90
2022-11-24T11:11:36.974Z,35.50
2022-11-24T11:14:06.628Z,34.90
2022-11-24T11:20:58.593Z,31.00
2022-11-24T11:23:31.788Z,34.40
2022-11-24T11:26:22.605Z,35.80
2022-11-24T11:34:50.672Z,32.50
2022-11-24T11:37:20.314Z,30.00
2022-11-24T11:39:50.682Z,34.30
2022-11-24T11:43:03.786Z,33.40
2022-11-24T11:45:29.975Z,32.70
2022-11-24T11:48:01.054Z,33.90
2022-11-24T11:51:14.878Z,34.40
2022-11-24T11:53:36.996Z,36.90
2022-11-24T11:56:27.057Z,35.80
2022-11-24T11:59:23.046Z,36.50
2022-11-24T12:02:09.531Z,32.30
2022-11-24T12:04:53.698Z,33.70
2022-11-24T12:07:36.780Z,33.60
2022-11-24T12:10:10.361Z,33.40
2022-11-24T12:12:47.784Z,35.40
2022-11-24T12:15:34.098Z,36.40
2022-11-24T12:18:40.358Z,34.90
2022-11-24T12:21:27.060Z,36.50
2022-11-24T12:23:58.040Z,35.60
2022-11-24T12:26:58.265Z,36.40
2022-11-24T12:29:48.166Z,35.30
2022-11-24T12:32:41.172Z,34.10
2022-11-24T12:35:20.559Z,37.40
2022-11-24T12:38:25.351Z,36.90
2022-11-24T12:41:39.750Z,35.80
2022-11-24T12:43:56.563Z,36.50
2022-11-24T12:47:03.751Z,39.00
2022-11-24T12:49:45.700Z,37.00
2022-11-24T12:52:28.975Z,37.50
2022-11-24T12:54:56.968Z,34.40
2022-11-24T12:57:38.838Z,34.40
2022-11-24T13:00:24.111Z,35.30
2022-11-24T13:03:00.941Z,37.50
2022-11-24T13:05:46.083Z,35.30
2022-11-24T13:08:14.414Z,41.70
2022-11-24T13:10:58.368Z,41.00
2022-11-24T13:13:30.273Z,34.20
2022-11-24T13:16:35.034Z,36.80
2022-11-24T13:18:57.273Z,35.20
2022-11-24T13:21:31.315Z,32.70
2022-11-24T13:24:02.400Z,30.30
2022-11-24T13:26:33.581Z,31.60
2022-11-24T13:29:23.847Z,29.90
2022-11-24T13:31:57.106Z,31.60
2022-11-24T13:34:43.172Z,32.50
2022-11-24T13:37:28.881Z,31.70
2022-11-24T13:40:13.141Z,32.40
2022-11-24T13:42:57.299Z,30.90
2022-11-24T13:45:41.534Z,30.40
2022-11-24T13:48:22.355Z,31.00
2022-11-24T13:50:50.718Z,34.10
2022-11-24T13:53:18.945Z,31.40
2022-11-24T13:56:00.737Z,32.60
2022-11-24T13:58:36.489Z,32.20
2022-11-24T14:01:11.412Z,31.40
2022-11-24T14:04:43.259Z,31.10
2022-11-24T14:07:08.716Z,32.20
2022-11-24T14:09:42.261Z,32.10
2022-11-24T14:12:17.243Z,32.20
2022-11-24T14:14:47.980Z,29.90
2022-11-24T14:17:15.661Z,32.70
2022-11-24T14:19:48.755Z,32.70
2022-11-24T14:22:17.176Z,34.00
2022-11-24T14:24:47.035Z,31.90
2022-11-24T14:27:17.138Z,34.60
2022-11-24T14:29:59.802Z,34.80
2022-11-24T14:32:27.825Z,33.70
2022-11-24T14:34:56.998Z,31.20
2022-11-24T14:37:24.947Z,33.60
2022-11-24T14:39:52.812Z,31.10
2022-11-24T14:42:23.139Z,31.30
2022-11-24T14:44:56.755Z,36.50
2022-11-24T14:47:31.394Z,33.90
2022-11-24T14:50:20.103Z,44.10
2022-11-24T14:52:58.200Z,42.40
2022-11-24T14:55:29.379Z,34.00
2022-11-24T14:57:58.565Z,30.20
2022-11-24T15:00:31.656Z,30.10
2022-11-24T15:03:02.193Z,30.40
2022-11-24T15:05:58.392Z,30.40
2022-11-24T15:08:27.964Z,38.50
2022-11-24T15:11:00.867Z,37.90
2022-11-24T15:13:31.086Z,38.20
2022-11-24T15:16:03.148Z,37.30
2022-11-24T15:21:01.735Z,35.00
2022-11-24T15:23:33.449Z,35.90
2022-11-24T15:26:01.372Z,34.20
2022-11-24T15:28:32.677Z,31.60
2022-11-24T15:31:06.416Z,29.00
2022-11-24T15:33:34.237Z,29.80
2022-11-24T15:36:02.310Z,29.20
2022-11-24T15:38:30.081Z,27.00
2022-11-24T15:40:59.311Z,29.20
2022-11-24T15:43:32.359Z,30.00
2022-11-24T15:46:01.519Z,29.10
2022-11-24T15:48:29.659Z,26.30
2022-11-24T15:50:58.959Z,26.60
2022-11-24T15:53:45.724Z,27.40
2022-11-24T15:56:33.083Z,26.50
2022-11-24T15:59:01.874Z,27.60
2022-11-24T16:01:31.611Z,29.10
2022-11-24T16:04:00.167Z,32.00
2022-11-24T16:06:27.972Z,33.90
2022-11-24T16:08:55.818Z,31.50
2022-11-24T16:11:23.742Z,32.10
2022-11-24T16:13:53.948Z,31.30
2022-11-24T16:16:23.377Z,31.70
2022-11-24T16:18:51.206Z,30.90
2022-11-24T16:21:18.951Z,32.20
2022-11-24T16:23:47.885Z,30.80
2022-11-24T16:26:15.747Z,31.70
2022-11-24T16:28:45.317Z,30.50
2022-11-24T16:31:15.795Z,29.40
2022-11-24T16:33:47.101Z,32.20
2022-11-24T16:36:15.239Z,42.90
2022-11-24T16:38:43.189Z,54.60
2022-11-24T16:41:11.562Z,50.50
2022-11-24T16:43:39.508Z,48.90
2022-11-24T16:46:23.726Z,36.50
2022-11-24T16:48:55.196Z,39.20
2022-11-24T16:51:23.882Z,34.00
2022-11-24T16:53:59.884Z,32.40
2022-11-24T16:56:28.922Z,31.40
2022-11-24T16:58:57.087Z,31.30
2022-11-24T17:01:26.132Z,34.80
2022-11-24T17:03:54.041Z,34.00
2022-11-24T17:06:21.983Z,31.40
2022-11-24T17:08:50.027Z,32.70
2022-11-24T17:11:20.699Z,31.20
2022-11-24T17:13:49.236Z,32.40
2022-11-24T17:16:19.847Z,35.70
2022-11-24T17:18:49.435Z,40.40
2022-11-24T17:21:22.907Z,45.20
2022-11-24T17:23:55.334Z,47.00
2022-11-24T17:26:23.870Z,48.50
2022-11-24T17:28:52.022Z,64.20
2022-11-24T17:31:27.611Z,63.50
2022-11-24T17:33:57.216Z,67.10
2022-11-24T17:36:26.385Z,64.10
2022-11-24T17:38:54.482Z,66.20
2022-11-24T17:41:22.651Z,56.90
2022-11-24T17:43:51.972Z,62.40
2022-11-24T17:46:19.924Z,55.20
2022-11-24T17:48:48.032Z,57.00
2022-11-24T17:51:19.234Z,61.40
2022-11-24T17:53:49.463Z,70.90
2022-11-24T17:56:25.529Z,82.10
2022-11-24T17:59:00.027Z,82.90
2022-11-24T18:01:30.190Z,83.20
2022-11-24T18:04:01.254Z,75.20
2022-11-24T18:06:29.299Z,69.50
2022-11-24T18:08:58.032Z,63.70
2022-11-24T18:11:31.333Z,52.30
2022-11-24T18:14:03.041Z,46.80
2022-11-24T18:16:32.520Z,38.60
2022-11-24T18:19:11.361Z,40.60
2022-11-24T18:21:41.279Z,40.10
2022-11-24T18:24:10.262Z,40.30
2022-11-24T18:26:39.366Z,36.20
2022-11-24T18:29:07.823Z,39.40
2022-11-24T18:31:36.321Z,41.80
2022-11-24T18:34:05.643Z,39.70
2022-11-24T18:36:33.755Z,39.00
2022-11-24T18:39:03.539Z,37.90
2022-11-24T18:41:32.019Z,39.40
2022-11-24T18:44:03.020Z,37.30
2022-11-24T18:46:30.816Z,36.20
2022-11-24T18:48:59.204Z,36.30
2022-11-24T18:51:27.291Z,36.50
2022-11-24T18:53:55.456Z,36.30
2022-11-24T18:56:23.933Z,38.40
2022-11-24T18:58:56.830Z,40.20
2022-11-24T19:01:27.327Z,51.00
2022-11-24T19:04:00.671Z,49.90
2022-11-24T19:06:32.628Z,45.80
2022-11-24T19:09:10.578Z,48.30
2022-11-24T19:11:40.518Z,44.70
2022-11-24T19:14:11.012Z,39.90
2022-11-24T19:16:39.466Z,39.30
2022-11-24T19:19:07.866Z,40.10
2022-11-24T19:21:42.482Z,37.60
2022-11-24T19:24:11.144Z,36.50
2022-11-24T19:26:39.847Z,37.30
2022-11-24T19:29:08.381Z,37.60
2022-11-24T19:31:39.350Z,35.40
2022-11-24T19:34:08.078Z,36.60
2022-11-24T19:36:36.462Z,37.00
2022-11-24T19:39:05.257Z,37.90
2022-11-24T19:41:34.223Z,38.10
2022-11-24T19:44:02.012Z,38.40
2022-11-24T19:46:30.193Z,38.70
2022-11-24T19:49:01.789Z,39.40
2022-11-24T19:51:31.612Z,41.10
2022-11-24T19:54:00.352Z,41.10
2022-11-24T19:56:30.749Z,39.80
2022-11-24T19:58:58.712Z,40.60
2022-11-24T20:01:28.817Z,39.00
2022-11-24T20:04:01.302Z,42.30
2022-11-24T20:06:31.907Z,42.10
2022-11-24T20:09:00.784Z,47.90
2022-11-24T20:11:29.335Z,48.60
2022-11-24T20:13:57.925Z,51.50
2022-11-24T20:16:31.117Z,51.30
2022-11-24T20:19:07.533Z,51.70
2022-11-24T20:21:36.969Z,51.30
2022-11-24T20:24:12.380Z,51.60
2022-11-24T20:26:46.674Z,47.60
2022-11-24T20:29:15.443Z,49.00
2022-11-24T20:31:48.952Z,48.30
2022-11-24T20:34:17.742Z,50.60
2022-11-24T20:36:46.981Z,53.10
2022-11-24T20:39:19.597Z,50.30
2022-11-24T20:41:47.472Z,49.40
2022-11-24T20:44:18.317Z,48.70
2022-11-24T20:46:46.643Z,49.60
2022-11-24T20:49:17.199Z,52.60
2022-11-24T20:51:47.758Z,51.70
2022-11-24T20:54:17.660Z,53.30
2022-11-24T20:56:46.559Z,52.00
2022-11-24T20:59:21.445Z,53.50
2022-11-24T21:01:50.350Z,53.40
2022-11-24T21:04:21.450Z,51.30
2022-11-24T21:06:49.936Z,54.10
2022-11-24T21:09:18.456Z,52.80
2022-11-24T21:11:47.259Z,51.50
2022-11-24T21:14:15.619Z,53.60
2022-11-24T21:16:43.979Z,50.30
2022-11-24T21:19:14.238Z,52.60
2022-11-24T21:21:43.275Z,54.40
2022-11-24T21:24:16.314Z,46.50
2022-11-24T21:26:47.540Z,48.10
2022-11-24T21:29:18.839Z,46.80
2022-11-24T21:31:46.802Z,45.80
2022-11-24T21:34:16.640Z,47.20
2022-11-24T21:36:45.141Z,46.20
2022-11-24T21:39:15.869Z,41.40
2022-11-24T21:41:43.780Z,47.40
2022-11-24T21:44:13.382Z,45.80
2022-11-24T21:46:46.256Z,48.10
2022-11-24T21:49:17.283Z,47.60
2022-11-24T21:51:45.006Z,49.80
2022-11-24T21:54:12.843Z,49.30
2022-11-24T21:56:40.624Z,47.90
2022-11-24T21:59:08.556Z,48.70
2022-11-24T22:01:36.342Z,50.20
2022-11-24T22:04:04.690Z,47.90
2022-11-24T22:06:33.266Z,46.70
2022-11-24T22:09:01.231Z,49.40
2022-11-24T22:11:29.014Z,53.20
2022-11-24T22:13:56.740Z,54.50
2022-11-24T22:16:25.558Z,50.30
2022-11-24T22:18:53.429Z,53.90
2022-11-24T22:21:30.646Z,53.90
2022-11-24T22:23:58.796Z,48.60
2022-11-24T22:26:27.598Z,55.70
2022-11-24T22:28:56.637Z,60.20
2022-11-24T22:31:26.495Z,58.90
2022-11-24T22:33:55.453Z,60.20
2022-11-24T22:36:25.082Z,57.20
2022-11-24T22:39:03.163Z,54.40
2022-11-24T22:41:34.979Z,51.20
2022-11-24T22:44:03.001Z,50.40
2022-11-24T22:46:31.910Z,49.70
2022-11-24T22:49:00.910Z,46.90
2022-11-24T22:51:33.469Z,47.70
2022-11-24T22:54:02.945Z,51.30
2022-11-24T22:56:32.547Z,50.40
2022-11-24T22:59:01.517Z,49.30
2022-11-24T23:01:30.584Z,49.90
2022-11-24T23:03:58.388Z,53.50
2022-11-24T23:06:28.765Z,52.00
2022-11-24T23:08:57.955Z,51.60
2022-11-24T23:11:34.862Z,51.90
2022-11-24T23:14:04.000Z,51.80
2022-11-24T23:16:31.795Z,51.60
2022-11-24T23:18:59.774Z,54.60
2022-11-24T23:21:29.321Z,55.10
2022-11-24T23:23:58.900Z,53.40
2022-11-24T23:26:29.920Z,52.30
2022-11-24T23:28:57.607Z,51.60
2022-11-24T23:31:30.269Z,50.70
2022-11-24T23:33:59.722Z,50.40
2022-11-24T23:36:28.238Z,47.70
2022-11-24T23:38:56.362Z,50.40
2022-11-24T23:41:25.358Z,47.40
2022-11-24T23:43:53.203Z,50.30
2022-11-24T23:46:23.013Z,48.90
2022-11-24T23:48:52.902Z,48.00
2022-11-24T23:51:29.435Z,48.30
2022-11-24T23:53:58.121Z,48.80
2022-11-24T23:56:32.307Z,47.40
2022-11-24T23:59:00.975Z,47.50
